Time;durP1;ratioP1;P1;durP2;ratioP2;P2;SDS_P1;SDS_P2;PMS_P1;PMS_P2;Temp;Humidity;BMP_temperature;BMP_pressure;BME280_temperature;BME280_humidity;BME280_pressure;Samples;Min_cycle;Max_cycle;Signal;HPM_P1;HPM_P2
2022/04/07 00:02:10;;;;;;;23.30;10.23;;;;;;;7.62;57.68;98056.72;1762746;80;20999;-82
2022/04/07 00:04:37;;;;;;;18.07;9.40;;;;;;;7.60;59.84;98050.74;1751265;80;21055;-82
2022/04/07 00:07:04;;;;;;;20.43;9.68;;;;;;;7.59;57.60;98046.45;1759941;81;20987;-82
2022/04/07 00:09:30;;;;;;;19.75;9.33;;;;;;;7.60;59.78;98039.52;1743439;81;21039;-82
2022/04/07 00:11:57;;;;;;;25.90;9.60;;;;;;;7.62;59.95;98020.50;1762287;81;21027;-81
2022/04/07 00:14:24;;;;;;;22.35;9.23;;;;;;;7.67;61.55;98021.64;1763904;80;21349;-83
2022/04/07 00:16:50;;;;;;;22.48;8.25;;;;;;;7.73;62.00;98012.40;1765434;81;21008;-81
2022/04/07 00:19:17;;;;;;;19.87;8.75;;;;;;;7.79;59.98;98017.84;1734101;83;20998;-82
2022/04/07 00:21:46;;;;;;;15.95;7.37;;;;;;;7.81;58.61;98015.59;1770533;81;21026;-82
2022/04/07 00:24:13;;;;;;;15.50;8.03;;;;;;;7.86;59.26;98018.02;1771245;81;21012;-81
2022/04/07 00:26:40;;;;;;;16.05;7.90;;;;;;;7.90;59.53;98009.30;1765130;81;21011;-82
2022/04/07 00:29:06;;;;;;;17.30;8.38;;;;;;;7.93;57.93;98007.44;1765500;81;21047;-82
2022/04/07 00:31:39;;;;;;;23.67;8.78;;;;;;;7.95;58.96;98012.11;1765646;81;21096;-82
2022/04/07 00:34:01;;;;;;;19.87;9.15;;;;;;;7.97;58.53;98010.78;1763858;80;20972;-83
2022/04/07 00:36:28;;;;;;;20.68;9.45;;;;;;;7.93;59.54;97998.83;1764831;81;20999;-83
2022/04/07 00:38:54;;;;;;;19.37;8.25;;;;;;;7.91;61.02;97987.69;1764934;81;21020;-81
2022/04/07 00:41:21;;;;;;;17.67;8.08;;;;;;;7.90;58.87;97992.48;1733701;81;20966;-81
2022/04/07 00:43:51;;;;;;;18.92;8.65;;;;;;;7.88;58.89;97986.51;1773370;81;21064;-82
2022/04/07 00:46:19;;;;;;;18.35;7.70;;;;;;;7.86;59.31;97984.38;1766068;80;20983;-82
2022/04/07 00:48:46;;;;;;;17.07;8.75;;;;;;;7.86;58.98;97986.97;1765167;81;21054;-83
2022/04/07 00:51:13;;;;;;;17.12;7.60;;;;;;;7.86;57.84;97988.27;1766296;81;20992;-84
2022/04/07 00:53:40;;;;;;;14.78;6.95;;;;;;;7.82;60.77;97985.38;1765509;81;21015;-83
2022/04/07 00:56:10;;;;;;;16.20;7.03;;;;;;;7.81;62.59;97983.70;1764205;81;21043;-82
2022/04/07 00:58:37;;;;;;;15.88;7.65;;;;;;;7.81;61.18;97976.78;1764331;81;21571;-81
2022/04/07 01:01:04;;;;;;;15.43;7.33;;;;;;;7.81;59.98;97974.65;1767490;81;21018;-82
2022/04/07 01:03:31;;;;;;;17.90;7.15;;;;;;;7.79;59.36;97966.92;1775513;78;21079;-82
2022/04/07 01:05:59;;;;;;;18.35;8.13;;;;;;;7.77;59.58;97958.37;1764258;81;21003;-81
2022/04/07 01:08:26;;;;;;;16.50;7.58;;;;;;;7.68;60.22;97954.77;1764436;81;21026;-81
2022/04/07 01:10:53;;;;;;;15.78;7.35;;;;;;;7.67;61.57;97966.03;1764554;81;20992;-83
2022/04/07 01:13:20;;;;;;;17.73;7.72;;;;;;;7.67;61.95;97950.51;1766430;81;21436;-82
2022/04/07 01:15:46;;;;;;;19.12;8.38;;;;;;;7.65;61.12;97938.91;1764713;81;21018;-82
2022/04/07 01:18:14;;;;;;;18.90;8.30;;;;;;;7.65;61.06;97954.42;1765149;81;21011;-83
2022/04/07 01:20:41;;;;;;;22.58;8.78;;;;;;;7.65;59.22;97935.48;1765398;81;21027;-81
2022/04/07 01:23:08;;;;;;;20.50;8.40;;;;;;;7.62;59.02;97945.48;1781682;80;21007;-81
2022/04/07 01:25:36;;;;;;;20.85;8.83;;;;;;;7.61;61.64;97937.31;1771431;79;20975;-83
2022/04/07 01:28:03;;;;;;;21.65;9.05;;;;;;;7.60;61.62;97931.76;1762021;81;21047;-82
2022/04/07 01:30:30;;;;;;;16.30;7.72;;;;;;;7.59;62.18;97922.29;1760406;81;21028;-81
2022/04/07 01:33:00;;;;;;;16.15;8.03;;;;;;;7.58;60.48;97928.37;1720185;82;21012;-81
2022/04/07 01:35:28;;;;;;;19.55;8.15;;;;;;;7.60;61.66;97925.30;1730955;82;21018;-82
2022/04/07 01:37:57;;;;;;;12.00;6.42;;;;;;;7.60;61.45;97914.08;1733951;82;20995;-81
2022/04/07 01:40:32;;;;;;;19.15;7.53;;;;;;;7.56;63.09;97912.06;1726314;82;21016;-81
2022/04/07 01:43:01;;;;;;;14.47;7.12;;;;;;;7.55;62.22;97908.60;1761414;81;20982;-82
2022/04/07 01:45:30;;;;;;;14.83;6.62;;;;;;;7.54;62.53;97913.82;1764070;81;20971;-82
2022/04/07 01:47:57;;;;;;;16.32;6.78;;;;;;;7.53;62.66;97910.84;1739920;82;21031;-82
2022/04/07 01:50:26;;;;;;;21.25;7.10;;;;;;;7.53;63.05;97901.80;1741038;82;21054;-83
2022/04/07 01:52:53;;;;;;;17.00;8.03;;;;;;;7.54;62.54;97903.47;1741483;82;21003;-82
2022/04/07 01:55:21;;;;;;;17.87;7.22;;;;;;;7.53;62.38;97901.34;1741371;82;21047;-82
2022/04/07 01:57:48;;;;;;;16.10;7.83;;;;;;;7.51;64.05;97903.13;1757847;81;21036;-83
2022/04/07 02:00:17;;;;;;;16.62;7.25;;;;;;;7.51;63.57;97893.24;1757404;80;21514;-82
2022/04/07 02:02:45;;;;;;;14.90;6.35;;;;;;;7.52;62.39;97902.25;1740860;82;21067;-81
2022/04/07 02:05:13;;;;;;;14.15;7.00;;;;;;;7.49;62.89;97901.05;1762827;81;20988;-82
2022/04/07 02:07:42;;;;;;;14.83;6.83;;;;;;;7.46;63.21;97901.58;1739328;82;20981;-82
2022/04/07 02:10:12;;;;;;;15.40;6.95;;;;;;;7.46;62.40;97904.17;1763776;81;21384;-83
2022/04/07 02:12:41;;;;;;;12.63;7.00;;;;;;;7.46;61.49;97902.45;1740785;82;21034;-83
2022/04/07 02:15:10;;;;;;;14.07;6.75;;;;;;;7.43;63.06;97893.48;1764303;81;21459;-82
2022/04/07 02:17:36;;;;;;;13.72;7.00;;;;;;;7.43;62.88;97895.23;1741115;82;21098;-82
2022/04/07 02:20:07;;;;;;;16.20;6.47;;;;;;;7.40;62.09;97889.72;1740930;82;21034;-83
2022/04/07 02:22:34;;;;;;;14.68;7.25;;;;;;;7.35;64.08;97885.96;1740992;82;21006;-81
2022/04/07 02:25:01;;;;;;;14.60;6.83;;;;;;;7.34;61.79;97883.42;1741169;82;21036;-82
2022/04/07 02:27:37;;;;;;;15.20;7.05;;;;;;;7.27;64.01;97873.73;1736901;81;21007;-82
2022/04/07 02:30:09;;;;;;;16.67;6.97;;;;;;;7.24;63.48;97865.22;1758817;81;20985;-81
2022/04/07 02:32:36;;;;;;;14.23;6.17;;;;;;;7.20;64.35;97852.83;1768983;81;21046;-81
2022/04/07 02:35:04;;;;;;;13.58;6.95;;;;;;;7.19;63.23;97851.61;1764988;81;21034;-82
2022/04/07 02:37:30;;;;;;;13.05;7.50;;;;;;;7.16;63.09;97841.77;1762144;81;21050;-82
2022/04/07 02:39:57;;;;;;;15.03;7.45;;;;;;;7.11;61.79;97840.21;1747090;81;21043;-82
2022/04/07 02:42:24;;;;;;;18.30;7.87;;;;;;;7.07;61.63;97835.58;1759744;81;22227;-82
2022/04/07 02:44:50;;;;;;;18.48;7.95;;;;;;;7.00;62.89;97831.94;1765211;81;21066;-82
2022/04/07 02:47:17;;;;;;;17.62;8.30;;;;;;;6.95;62.89;97825.62;1761440;81;21027;-81
2022/04/07 02:49:44;;;;;;;16.50;8.08;;;;;;;6.89;65.31;97832.27;1758090;81;21096;-82
2022/04/07 02:52:12;;;;;;;19.05;7.90;;;;;;;6.84;63.89;97832.39;1737369;81;20992;-82
2022/04/07 02:54:38;;;;;;;17.87;8.28;;;;;;;6.82;63.31;97827.72;1765194;81;21027;-82
2022/04/07 02:57:06;;;;;;;15.90;7.65;;;;;;;6.79;64.34;97817.95;1765259;81;20980;-81
2022/04/07 02:59:34;;;;;;;17.12;7.25;;;;;;;6.76;64.47;97818.87;1765206;81;21741;-83
2022/04/07 03:02:01;;;;;;;14.80;5.80;;;;;;;6.76;65.48;97820.16;1765567;81;21035;-82
2022/04/07 03:04:28;;;;;;;14.25;6.75;;;;;;;6.73;64.54;97812.52;1765492;81;21031;-83
2022/04/07 03:06:55;;;;;;;12.53;6.15;;;;;;;6.73;66.90;97812.52;1762104;81;20944;-83
2022/04/07 03:09:22;;;;;;;14.47;6.72;;;;;;;6.70;64.76;97791.94;1729952;82;21210;-82
2022/04/07 03:11:49;;;;;;;14.83;6.95;;;;;;;6.73;66.30;97792.69;1730121;83;21000;-82
2022/04/07 03:14:16;;;;;;;11.50;6.00;;;;;;;6.77;65.31;97792.16;1748986;81;20986;-84
2022/04/07 03:16:42;;;;;;;10.98;6.08;;;;;;;6.78;66.03;97796.42;1765832;79;21003;-83
2022/04/07 03:19:09;;;;;;;19.62;7.25;;;;;;;6.78;66.86;97795.12;1765785;81;20982;-83
2022/04/07 03:21:36;;;;;;;20.00;8.13;;;;;;;6.80;66.94;97792.50;1766072;81;21037;-83
2022/04/07 03:24:03;;;;;;;23.65;11.25;;;;;;;6.84;66.24;97781.19;1765774;81;21013;-83
2022/04/07 03:26:30;;;;;;;20.25;9.70;;;;;;;6.84;65.54;97774.72;1749621;81;20948;-82
2022/04/07 03:28:56;;;;;;;18.55;9.23;;;;;;;6.80;66.55;97771.84;1766992;81;21070;-81
2022/04/07 03:31:23;;;;;;;20.00;8.58;;;;;;;6.79;65.34;97772.30;1768188;81;21510;-83
2022/04/07 03:33:50;;;;;;;16.73;7.33;;;;;;;6.82;64.57;97774.77;1766661;81;21011;-83
2022/04/07 03:36:17;;;;;;;13.90;7.15;;;;;;;6.75;65.65;97776.70;1751601;81;20972;-81
2022/04/07 03:38:45;;;;;;;18.37;8.30;;;;;;;6.72;66.82;97771.61;1768216;81;20948;-83
2022/04/07 03:41:12;;;;;;;22.65;9.33;;;;;;;6.66;67.02;97776.13;1771494;80;21003;-83
2022/04/07 03:43:39;;;;;;;17.92;9.08;;;;;;;6.63;64.88;97769.33;1766039;81;20983;-82
2022/04/07 03:46:05;;;;;;;19.45;9.35;;;;;;;6.56;67.12;97765.23;1762820;81;21047;-83
2022/04/07 03:48:32;;;;;;;23.07;9.68;;;;;;;6.55;65.59;97768.27;1757969;81;20999;-83
2022/04/07 03:50:58;;;;;;;21.02;10.58;;;;;;;6.49;66.77;97774.91;1761250;81;21491;-82
2022/04/07 03:53:25;;;;;;;25.97;10.75;;;;;;;6.47;67.00;97761.20;1742654;81;21050;-81
2022/04/07 03:55:52;;;;;;;21.70;11.28;;;;;;;6.46;68.18;97759.50;1764970;81;21018;-82
2022/04/07 03:58:18;;;;;;;25.62;12.73;;;;;;;6.47;65.54;97757.33;1766518;81;20956;-82
2022/04/07 04:00:45;;;;;;;25.37;11.60;;;;;;;6.44;66.31;97753.54;1766123;81;21003;-82
2022/04/07 04:03:12;;;;;;;20.72;11.18;;;;;;;6.42;66.01;97750.16;1766017;80;21055;-82
2022/04/07 04:05:38;;;;;;;22.00;10.30;;;;;;;6.36;68.18;97746.02;1788079;79;20933;-82
2022/04/07 04:08:05;;;;;;;19.27;9.13;;;;;;;6.36;66.41;97734.40;1765679;81;21070;-83
2022/04/07 04:10:32;;;;;;;21.02;9.35;;;;;;;6.40;68.30;97739.03;1767294;81;21031;-82
2022/04/07 04:12:58;;;;;;;16.95;8.45;;;;;;;6.41;68.29;97732.16;1769386;81;21031;-81
2022/04/07 04:15:25;;;;;;;22.15;8.25;;;;;;;6.44;68.68;97721.72;1765689;81;20982;-83
2022/04/07 04:17:52;;;;;;;17.30;8.93;;;;;;;6.49;67.43;97715.98;1765707;81;21015;-83
2022/04/07 04:20:18;;;;;;;17.57;9.03;;;;;;;6.50;67.93;97717.20;1765678;81;20989;-83
2022/04/07 04:22:45;;;;;;;20.68;8.23;;;;;;;6.49;67.63;97714.69;1768725;81;20974;-83
2022/04/07 04:25:11;;;;;;;14.25;7.55;;;;;;;6.54;67.68;97713.63;1774613;81;21023;-83
2022/04/07 04:27:39;;;;;;;18.23;9.20;;;;;;;6.59;68.22;97719.13;1774460;81;20951;-82
2022/04/07 04:30:08;;;;;;;15.93;8.20;;;;;;;6.60;67.71;97713.05;1775050;80;20992;-82
2022/04/07 04:32:35;;;;;;;16.82;8.50;;;;;;;6.67;67.42;97715.41;1773530;80;21002;-82
2022/04/07 04:35:03;;;;;;;24.15;10.08;;;;;;;6.68;66.70;97720.11;1773611;81;21015;-83
2022/04/07 04:37:29;;;;;;;19.32;9.75;;;;;;;6.61;69.15;97709.59;1774138;78;21035;-84
2022/04/07 04:39:56;;;;;;;18.90;9.25;;;;;;;6.63;67.98;97710.39;1774119;78;21022;-83
2022/04/07 04:42:23;;;;;;;19.05;9.28;;;;;;;6.63;67.73;97710.39;1774165;81;21027;-82
2022/04/07 04:44:50;;;;;;;18.12;10.10;;;;;;;6.63;67.14;97710.39;1773605;81;21066;-82
2022/04/07 04:47:18;;;;;;;26.15;9.85;;;;;;;6.63;68.09;97712.98;1773520;81;21039;-82
2022/04/07 04:49:45;;;;;;;24.55;12.03;;;;;;;6.64;66.50;97710.77;1773153;79;21023;-83
2022/04/07 04:52:12;;;;;;;24.63;11.48;;;;;;;6.62;69.06;97703.52;1756846;81;21026;-82
2022/04/07 04:54:40;;;;;;;21.15;10.00;;;;;;;6.63;68.77;97704.77;1762857;81;20974;-83
2022/04/07 04:57:07;;;;;;;19.15;9.80;;;;;;;6.66;66.50;97699.95;1773556;81;21022;-83
2022/04/07 04:59:35;;;;;;;20.57;10.65;;;;;;;6.68;67.67;97704.62;1773493;81;20999;-80
2022/04/07 05:02:04;;;;;;;19.60;9.58;;;;;;;6.71;68.09;97693.75;1694494;81;21059;-83
2022/04/07 05:04:32;;;;;;;18.62;9.25;;;;;;;6.75;68.11;97701.80;1773021;80;21087;-82
2022/04/07 05:06:59;;;;;;;21.73;8.03;;;;;;;6.82;67.47;97697.72;1790211;80;20960;-82
2022/04/07 05:09:26;;;;;;;18.17;8.53;;;;;;;6.87;66.81;97691.97;1772559;81;21002;-82
2022/04/07 05:11:53;;;;;;;15.75;8.03;;;;;;;6.90;68.29;97697.89;1744034;79;21036;-82
2022/04/07 05:14:20;;;;;;;15.68;8.10;;;;;;;6.92;67.52;97693.52;1743628;78;20936;-82
2022/04/07 05:16:48;;;;;;;17.90;9.35;;;;;;;6.98;68.17;97688.56;1772218;80;21523;-81
2022/04/07 05:19:15;;;;;;;20.92;8.40;;;;;;;7.04;67.58;97681.90;1771545;81;21018;-82
2022/04/07 05:21:44;;;;;;;16.32;7.67;;;;;;;7.03;68.56;97678.10;1771468;81;20968;-81
2022/04/07 05:24:11;;;;;;;20.65;10.00;;;;;;;7.10;67.47;97686.89;1772487;80;21022;-82
2022/04/07 05:26:38;;;;;;;17.23;9.45;;;;;;;7.15;67.52;97683.69;1772448;81;20987;-82
2022/04/07 05:29:05;;;;;;;20.10;10.58;;;;;;;7.21;67.54;97683.09;1771456;81;21543;-82
2022/04/07 05:31:32;;;;;;;21.68;9.83;;;;;;;7.26;67.43;97680.75;1754140;81;20983;-82
2022/04/07 05:33:59;;;;;;;23.30;9.55;;;;;;;7.34;66.61;97674.00;1737017;83;21155;-81
2022/04/07 05:36:26;;;;;;;17.62;8.55;;;;;;;7.40;66.64;97675.53;1749705;81;21054;-81
2022/04/07 05:38:54;;;;;;;22.80;10.32;;;;;;;7.47;66.16;97683.48;1770623;81;21055;-81
2022/04/07 05:41:21;;;;;;;21.77;9.08;;;;;;;7.54;65.90;97680.62;1761295;81;21107;-80
2022/04/07 05:43:48;;;;;;;20.30;8.63;;;;;;;7.60;65.32;97667.94;1743763;81;21159;-82
2022/04/07 05:46:16;;;;;;;25.05;10.08;;;;;;;7.62;66.06;97660.97;1710138;84;20994;-82
2022/04/07 05:48:42;;;;;;;19.70;10.53;;;;;;;7.71;65.84;97663.66;1697435;84;21134;-82
2022/04/07 05:51:09;;;;;;;19.15;10.75;;;;;;;7.76;65.86;97666.47;1757083;82;21011;-82
2022/04/07 05:53:36;;;;;;;23.75;10.32;;;;;;;7.81;65.82;97664.16;1743398;82;21523;-83
2022/04/07 05:56:03;;;;;;;20.15;9.70;;;;;;;7.84;64.79;97666.20;1754242;82;21056;-82
2022/04/07 05:58:30;;;;;;;18.57;9.23;;;;;;;7.83;65.58;97667.54;1743175;80;21100;-90
2022/04/07 06:00:57;;;;;;;20.35;9.83;;;;;;;7.90;64.79;97672.89;1708243;84;21018;-91
2022/04/07 06:03:23;;;;;;;19.52;9.85;;;;;;;7.90;65.57;97660.79;1711984;83;21095;-90
2022/04/07 06:05:53;;;;;;;17.52;8.73;;;;;;;7.94;65.17;97667.53;1718811;82;21010;-91
2022/04/07 06:08:22;;;;;;;20.70;9.63;;;;;;;7.97;65.40;97671.74;1706529;82;21092;-92
2022/04/07 06:10:49;;;;;;;24.72;11.05;;;;;;;8.04;64.77;97665.45;1758576;78;21187;-91
2022/04/07 06:13:16;;;;;;;30.00;10.25;;;;;;;8.08;64.68;97647.61;1769370;80;21004;-89
2022/04/07 06:15:43;;;;;;;21.40;10.63;;;;;;;8.13;64.93;97643.54;1766971;80;21537;-82
2022/04/07 06:18:09;;;;;;;24.35;11.63;;;;;;;8.16;64.43;97640.39;1759237;80;21023;-80
2022/04/07 06:20:38;;;;;;;26.00;12.25;;;;;;;8.21;64.23;97631.59;1769397;79;21010;-83
2022/04/07 06:23:05;;;;;;;23.87;11.55;;;;;;;8.14;64.31;97630.55;1768734;80;21065;-80
2022/04/07 06:25:31;;;;;;;23.95;10.05;;;;;;;8.17;65.31;97630.87;1764573;80;21055;-82
2022/04/07 06:28:02;;;;;;;21.62;10.05;;;;;;;8.20;65.02;97633.35;1763726;80;21017;-81
2022/04/07 06:30:27;;;;;;;21.27;10.23;;;;;;;8.30;64.68;97637.72;1764415;80;20971;-83
2022/04/07 06:32:53;;;;;;;21.40;9.18;;;;;;;8.39;64.89;97628.73;1761719;81;21055;-83
2022/04/07 06:35:20;;;;;;;24.65;10.55;;;;;;;8.49;64.18;97627.49;1764413;80;21108;-80
2022/04/07 06:37:53;;;;;;;22.80;10.68;;;;;;;8.55;63.90;97631.13;1737249;81;20993;-81
2022/04/07 06:40:28;;;;;;;24.55;10.15;;;;;;;8.65;64.31;97636.32;1765145;80;21122;-80
2022/04/07 06:42:58;;;;;;;33.78;13.08;;;;;;;8.80;63.11;97636.16;1765922;80;21060;-79
2022/04/07 06:45:29;;;;;;;44.33;14.47;;;;;;;8.86;63.67;97634.61;1762032;80;21073;-82
2022/04/07 06:47:56;;;;;;;48.15;14.65;;;;;;;9.00;63.66;97635.80;1735281;81;20989;-83
2022/04/07 06:50:25;;;;;;;44.38;13.80;;;;;;;9.13;63.26;97647.31;1770048;80;21075;-80
2022/04/07 06:52:53;;;;;;;38.08;13.32;;;;;;;9.27;62.84;97646.72;1762728;80;20967;-81
2022/04/07 06:55:20;;;;;;;31.40;12.18;;;;;;;9.38;62.73;97648.41;1764892;80;20983;-80
2022/04/07 06:58:00;;;;;;;26.73;11.55;;;;;;;9.48;62.25;97638.48;1767309;80;21110;-80
2022/04/07 07:00:31;;;;;;;26.30;11.35;;;;;;;9.56;62.53;97644.17;1768685;80;21026;-81
2022/04/07 07:03:00;;;;;;;24.27;11.10;;;;;;;9.74;62.21;97639.91;1767644;80;21018;-81
2022/04/07 07:05:30;;;;;;;35.75;13.58;;;;;;;9.84;61.76;97641.64;1772050;80;20968;-80
2022/04/07 07:07:59;;;;;;;26.85;11.40;;;;;;;9.94;61.47;97642.91;1769321;80;21021;-80
2022/04/07 07:10:30;;;;;;;24.75;13.10;;;;;;;10.02;61.29;97644.69;1760642;80;21124;-80
2022/04/07 07:12:59;;;;;;;27.93;11.70;;;;;;;10.14;61.21;97648.47;1766586;78;20983;-91
2022/04/07 07:15:26;;;;;;;155.97;55.38;;;;;;;10.24;60.86;97639.80;1701518;82;21138;-85
2022/04/07 07:17:53;;;;;;;33.80;16.60;;;;;;;10.30;60.65;97629.15;1697818;83;21058;-83
2022/04/07 07:20:21;;;;;;;36.03;18.50;;;;;;;10.34;60.64;97634.59;1696698;82;21085;-84
2022/04/07 07:22:48;;;;;;;41.58;19.45;;;;;;;10.41;60.70;97633.39;1704551;78;21135;-92
2022/04/07 07:25:15;;;;;;;237.55;96.17;;;;;;;10.52;60.68;97643.26;1668062;84;21149;-92
2022/04/07 07:27:44;;;;;;;48.70;23.25;;;;;;;10.66;60.52;97635.63;1674954;84;21302;-87
2022/04/07 07:30:15;;;;;;;26.75;13.50;;;;;;;10.78;60.19;97619.89;1704148;84;21109;-85
2022/04/07 07:32:44;;;;;;;35.33;14.75;;;;;;;10.78;60.30;97615.99;1741649;79;21158;-90
2022/04/07 07:35:12;;;;;;;36.05;17.40;;;;;;;10.85;60.20;97629.08;1740402;80;21030;-85
2022/04/07 07:37:52;;;;;;;26.00;12.00;;;;;;;10.97;60.24;97626.33;1754916;79;21074;-85
2022/04/07 07:40:22;;;;;;;31.70;11.93;;;;;;;11.11;59.84;97617.83;1746928;80;21007;-83
2022/04/07 07:42:52;;;;;;;49.83;19.45;;;;;;;11.15;59.21;97618.89;1755622;80;21284;-85
2022/04/07 07:45:20;;;;;;;46.80;18.87;;;;;;;11.28;59.36;97632.13;1763466;80;21011;-85
2022/04/07 07:47:47;;;;;;;59.00;21.48;;;;;;;11.24;59.30;97603.73;1747307;78;21045;-86
2022/04/07 07:50:14;;;;;;;31.97;11.90;;;;;;;11.52;59.12;97626.58;1725880;81;21007;-86
2022/04/07 07:52:41;;;;;;;27.77;11.38;;;;;;;11.55;58.50;97634.21;1750534;80;21032;-85
2022/04/07 07:55:09;;;;;;;37.17;13.15;;;;;;;11.60;58.22;97635.26;1752947;81;21020;-83
2022/04/07 07:57:36;;;;;;;24.30;10.65;;;;;;;11.72;58.23;97626.36;1755014;80;21036;-85
2022/04/07 08:00:07;;;;;;;25.32;12.05;;;;;;;11.62;57.25;97615.20;1742876;80;21055;-81
2022/04/07 08:02:35;;;;;;;63.28;21.85;;;;;;;11.60;57.59;97626.15;1751775;80;21070;-86
2022/04/07 08:05:02;;;;;;;46.60;16.65;;;;;;;11.61;57.99;97628.68;1725542;79;21129;-87
2022/04/07 08:07:29;;;;;;;20.70;10.10;;;;;;;11.64;57.83;97622.02;1675317;84;21085;-87
2022/04/07 08:09:57;;;;;;;25.82;10.85;;;;;;;11.57;57.50;97615.92;1691048;83;21353;-87
2022/04/07 08:12:26;;;;;;;28.62;11.83;;;;;;;11.54;57.67;97618.23;1679867;80;21103;-90
2022/04/07 08:14:53;;;;;;;32.38;13.18;;;;;;;11.54;57.67;97620.83;1691485;81;21033;-83
2022/04/07 08:17:21;;;;;;;26.48;10.35;;;;;;;11.55;57.67;97624.63;1694840;79;21481;-90
2022/04/07 08:19:48;;;;;;;18.48;8.68;;;;;;;11.55;57.26;97615.99;1714805;83;21067;-86
2022/04/07 08:22:16;;;;;;;23.62;10.65;;;;;;;11.50;57.08;97617.55;1718037;82;21097;-85
2022/04/07 08:24:44;;;;;;;28.23;11.48;;;;;;;11.48;57.13;97631.53;1719040;82;21496;-84
2022/04/07 08:27:12;;;;;;;36.55;12.90;;;;;;;11.50;57.17;97636.23;1699235;83;21092;-84
2022/04/07 08:29:50;;;;;;;28.85;11.25;;;;;;;11.49;57.13;97627.56;1754790;80;21127;-85
2022/04/07 08:32:34;;;;;;;34.33;13.62;;;;;;;11.48;56.50;97632.40;1737123;81;21042;-83
2022/04/07 08:35:02;;;;;;;41.30;14.95;;;;;;;11.48;56.87;97631.09;1712668;82;21428;-82
2022/04/07 08:37:29;;;;;;;39.88;13.85;;;;;;;11.45;57.06;97638.22;1748691;81;21327;-83
2022/04/07 08:39:55;;;;;;;22.75;11.55;;;;;;;11.37;58.46;97637.77;1758269;79;21023;-85
2022/04/07 08:42:23;;;;;;;33.73;12.30;;;;;;;11.23;58.87;97640.62;1754736;79;20991;-85
2022/04/07 08:44:50;;;;;;;21.82;11.00;;;;;;;11.13;59.79;97640.23;1749870;80;21071;-87
2022/04/07 08:47:20;;;;;;;19.55;10.78;;;;;;;11.09;60.24;97643.08;1723258;78;21611;-89
2022/04/07 08:49:51;;;;;;;24.55;11.53;;;;;;;11.01;60.10;97635.66;1762246;80;21196;-85
2022/04/07 08:52:18;;;;;;;24.20;11.78;;;;;;;10.87;62.93;97627.71;1765689;80;20984;-85
2022/04/07 08:54:47;;;;;;;37.17;15.50;;;;;;;10.81;61.54;97615.85;1764926;80;21003;-83
2022/04/07 08:57:17;;;;;;;30.17;15.83;;;;;;;10.73;63.30;97617.99;1753143;80;21090;-83
2022/04/07 08:59:44;;;;;;;23.92;10.90;;;;;;;10.73;62.38;97642.69;1755099;81;21079;-82
2022/04/07 09:02:12;;;;;;;21.87;10.55;;;;;;;10.66;63.92;97610.11;1752561;82;21031;-83
2022/04/07 09:04:40;;;;;;;27.62;12.47;;;;;;;10.60;63.86;97607.80;1760989;80;21024;-83
2022/04/07 09:07:08;;;;;;;26.97;12.37;;;;;;;10.62;66.33;97616.37;1754909;80;21475;-82
2022/04/07 09:09:36;;;;;;;32.33;15.20;;;;;;;10.65;65.53;97609.73;1769822;80;20969;-83
2022/04/07 09:12:04;;;;;;;46.48;24.90;;;;;;;10.69;66.79;97615.16;1759891;81;21039;-82
2022/04/07 09:14:37;;;;;;;103.00;54.58;;;;;;;10.69;68.17;97609.97;1788553;78;21222;-87
2022/04/07 09:17:05;;;;;;;163.68;77.95;;;;;;;10.73;68.97;97611.03;1788778;78;21016;-91
2022/04/07 09:19:34;;;;;;;60.17;31.45;;;;;;;10.77;69.13;97603.09;1762578;79;21580;-91
2022/04/07 09:22:10;;;;;;;32.98;17.52;;;;;;;10.78;67.86;97593.06;1681573;81;21054;-90
2022/04/07 09:24:40;;;;;;;30.90;14.05;;;;;;;10.79;68.60;97586.50;1700116;84;21027;-85
2022/04/07 09:27:10;;;;;;;46.42;21.40;;;;;;;10.79;67.48;97580.47;1695324;80;21201;-87
2022/04/07 09:29:46;;;;;;;57.30;25.12;;;;;;;10.85;67.86;97574.48;1705696;82;21018;-86
2022/04/07 09:32:25;;;;;;;68.92;40.05;;;;;;;10.93;70.01;97565.00;1705104;82;21038;-82
2022/04/07 09:35:00;;;;;;;66.28;40.73;;;;;;;11.04;68.26;97556.64;1710239;82;21444;-81
2022/04/07 09:37:29;;;;;;;68.92;37.45;;;;;;;11.04;68.97;97553.60;1710971;82;21076;-85
2022/04/07 09:40:10;;;;;;;133.22;54.20;;;;;;;11.12;69.43;97550.58;1708574;82;20956;-86
2022/04/07 09:42:37;;;;;;;52.38;26.62;;;;;;;11.12;72.45;97544.08;1719146;81;21096;-87
2022/04/07 09:45:07;;;;;;;36.75;20.23;;;;;;;11.12;70.54;97535.83;1692972;83;21001;-85
2022/04/07 09:47:44;;;;;;;33.90;17.07;;;;;;;11.11;67.55;97515.94;1682231;83;21388;-86
2022/04/07 09:50:31;;;;;;;31.05;15.78;;;;;;;11.03;70.07;97514.66;1707535;82;20999;-86
2022/04/07 09:53:03;;;;;;;27.07;14.93;;;;;;;11.05;67.89;97505.02;1708863;83;21010;-85
2022/04/07 09:55:37;;;;;;;33.63;15.72;;;;;;;10.99;70.34;97510.55;1712040;83;21035;-84
2022/04/07 09:58:07;;;;;;;30.97;14.23;;;;;;;11.01;70.71;97504.34;1673778;84;21087;-85
2022/04/07 10:00:35;;;;;;;21.40;11.63;;;;;;;11.05;68.46;97503.25;1678939;84;21019;-85
2022/04/07 10:03:02;;;;;;;40.08;15.60;;;;;;;11.10;69.78;97499.97;1704410;83;21069;-81
2022/04/07 10:05:30;;;;;;;35.85;16.70;;;;;;;11.08;72.46;97491.84;1708826;82;20987;-91
2022/04/07 10:08:07;;;;;;;40.63;17.92;;;;;;;11.09;70.36;97480.53;1699011;83;21008;-84
2022/04/07 10:10:35;;;;;;;31.07;15.05;;;;;;;11.04;70.94;97478.63;1711916;82;21024;-83
2022/04/07 10:13:02;;;;;;;29.75;12.98;;;;;;;11.07;70.88;97479.30;1694757;83;21024;-83
2022/04/07 10:15:30;;;;;;;27.40;12.23;;;;;;;11.20;69.88;97482.55;1697772;83;21058;-85
2022/04/07 10:18:00;;;;;;;26.17;12.23;;;;;;;11.28;70.10;97487.73;1693883;83;21055;-84
2022/04/07 10:20:34;;;;;;;27.35;13.85;;;;;;;11.42;70.16;97485.70;1676576;84;21040;-82
2022/04/07 10:23:09;;;;;;;26.95;14.60;;;;;;;11.56;70.71;97490.16;1650959;86;21497;-81
2022/04/07 10:25:43;;;;;;;35.15;16.32;;;;;;;11.66;73.73;97486.12;1680516;84;21090;-81
2022/04/07 10:28:11;;;;;;;26.42;13.32;;;;;;;11.78;74.12;97496.75;1665552;84;21048;-87
2022/04/07 10:30:53;;;;;;;25.97;12.33;;;;;;;11.88;70.77;97509.20;1681617;82;21090;-90
2022/04/07 10:33:42;;;;;;;27.40;11.60;;;;;;;11.90;71.00;97511.76;1721088;83;21060;-83
2022/04/07 10:36:20;;;;;;;27.95;12.47;;;;;;;11.99;69.61;97509.09;1779829;80;21008;-92
2022/04/07 10:38:51;;;;;;;23.10;12.45;;;;;;;11.96;70.31;97517.92;1691175;84;21064;-84
2022/04/07 10:41:41;;;;;;;25.48;11.20;;;;;;;11.97;69.72;97518.28;1644614;86;21662;-84
2022/04/07 10:44:17;;;;;;;20.60;10.50;;;;;;;11.89;69.09;97520.48;1670544;84;21046;-85
2022/04/07 10:46:44;;;;;;;20.65;10.28;;;;;;;11.79;69.67;97511.00;1675506;84;21407;-84
2022/04/07 10:49:15;;;;;;;30.60;10.93;;;;;;;11.74;68.76;97510.43;1669733;84;21027;-86
2022/04/07 10:51:51;;;;;;;21.12;10.50;;;;;;;11.73;68.29;97508.27;1668674;84;21107;-84
2022/04/07 10:54:18;;;;;;;20.92;10.32;;;;;;;11.65;69.08;97501.81;1671253;85;21017;-84
2022/04/07 10:56:53;;;;;;;21.85;10.10;;;;;;;11.63;67.84;97495.85;1666796;86;21055;-82
2022/04/07 10:59:34;;;;;;;20.37;9.48;;;;;;;11.52;69.07;97494.68;1663249;86;21140;-84
2022/04/07 11:02:12;;;;;;;20.75;9.90;;;;;;;11.42;68.70;97500.45;1671363;85;20972;-84
2022/04/07 11:05:03;;;;;;;19.62;9.18;;;;;;;11.33;68.89;97492.22;1672319;85;21055;-85
2022/04/07 11:10:11;;;;;;;20.15;8.50;;;;;;;11.29;68.35;97488.58;1674329;84;21062;-92
2022/04/07 11:12:43;;;;;;;15.20;8.58;;;;;;;11.20;68.64;97490.35;1657579;81;22308;-87
2022/04/07 11:15:51;;;;;;;19.92;8.88;;;;;;;11.22;68.76;97482.01;1685586;78;21116;-91
2022/04/07 11:18:32;;;;;;;20.05;9.80;;;;;;;11.10;68.77;97481.76;1667834;81;21047;-88
2022/04/07 11:21:11;;;;;;;20.75;9.50;;;;;;;11.10;68.96;97482.20;1665681;82;21039;-84
2022/04/07 11:23:52;;;;;;;20.17;9.58;;;;;;;11.09;69.00;97470.96;1738429;79;21016;-84
2022/04/07 11:26:23;;;;;;;16.52;9.13;;;;;;;11.09;68.78;97464.45;1730547;82;20965;-81
2022/04/07 11:29:11;;;;;;;16.37;8.83;;;;;;;11.03;68.83;97472.59;1792254;79;21574;-83
2022/04/07 11:31:53;;;;;;;15.05;9.10;;;;;;;10.99;69.39;97465.05;1717227;81;21116;-88
2022/04/07 11:37:14;;;;;;;15.35;8.73;;;;;;;10.94;69.49;97458.77;1701385;83;21132;-89
2022/04/07 11:39:50;;;;;;;17.02;8.33;;;;;;;10.88;69.74;97456.05;1706262;81;21304;-90
2022/04/07 11:42:19;;;;;;;15.98;8.75;;;;;;;10.93;68.51;97458.40;1691924;84;21075;-83